sensor_id;sensor_type;location;lat;lon;timestamp;P1;durP1;ratioP1;P2;durP2;ratioP2
75506;SDS011;64086;43.220;27.878;2023-06-05T00:01:54;4.35;;;1.98;;
75506;SDS011;64086;43.220;27.878;2023-06-05T00:04:19;6.07;;;2.30;;
75506;SDS011;64086;43.220;27.878;2023-06-05T00:06:46;5.03;;;2.13;;
75506;SDS011;64086;43.220;27.878;2023-06-05T00:09:11;4.72;;;2.22;;
75506;SDS011;64086;43.220;27.878;2023-06-05T00:11:38;6.63;;;2.30;;
75506;SDS011;64086;43.220;27.878;2023-06-05T00:14:04;5.38;;;2.30;;
75506;SDS011;64086;43.220;27.878;2023-06-05T00:16:30;4.35;;;2.13;;
75506;SDS011;64086;43.220;27.878;2023-06-05T00:18:56;4.88;;;2.10;;
75506;SDS011;64086;43.220;27.878;2023-06-05T00:21:22;5.38;;;1.75;;
75506;SDS011;64086;43.220;27.878;2023-06-05T00:23:50;4.32;;;2.08;;
75506;SDS011;64086;43.220;27.878;2023-06-05T00:26:15;4.65;;;2.45;;
75506;SDS011;64086;43.220;27.878;2023-06-05T00:28:41;5.28;;;2.30;;
75506;SDS011;64086;43.220;27.878;2023-06-05T00:31:06;4.53;;;2.30;;
75506;SDS011;64086;43.220;27.878;2023-06-05T00:33:32;4.30;;;2.25;;
75506;SDS011;64086;43.220;27.878;2023-06-05T00:35:57;4.38;;;2.20;;
75506;SDS011;64086;43.220;27.878;2023-06-05T00:38:23;5.85;;;2.30;;
75506;SDS011;64086;43.220;27.878;2023-06-05T00:40:48;4.88;;;2.20;;
75506;SDS011;64086;43.220;27.878;2023-06-05T00:43:13;5.88;;;2.50;;
75506;SDS011;64086;43.220;27.878;2023-06-05T00:45:39;6.38;;;2.67;;
75506;SDS011;64086;43.220;27.878;2023-06-05T00:48:05;7.78;;;2.97;;
75506;SDS011;64086;43.220;27.878;2023-06-05T00:50:31;8.13;;;2.50;;
75506;SDS011;64086;43.220;27.878;2023-06-05T00:52:58;7.25;;;2.65;;
75506;SDS011;64086;43.220;27.878;2023-06-05T00:55:26;6.88;;;2.70;;
75506;SDS011;64086;43.220;27.878;2023-06-05T00:57:52;4.70;;;2.45;;
75506;SDS011;64086;43.220;27.878;2023-06-05T01:00:17;8.25;;;2.97;;
75506;SDS011;64086;43.220;27.878;2023-06-05T01:02:43;7.50;;;2.50;;
75506;SDS011;64086;43.220;27.878;2023-06-05T01:05:09;8.85;;;2.58;;
75506;SDS011;64086;43.220;27.878;2023-06-05T01:07:35;4.97;;;2.40;;
75506;SDS011;64086;43.220;27.878;2023-06-05T01:10:04;5.75;;;2.75;;
75506;SDS011;64086;43.220;27.878;2023-06-05T01:15:08;5.20;;;2.80;;
75506;SDS011;64086;43.220;27.878;2023-06-05T01:17:34;6.15;;;2.58;;
75506;SDS011;64086;43.220;27.878;2023-06-05T01:20:00;4.88;;;2.50;;
75506;SDS011;64086;43.220;27.878;2023-06-05T01:22:32;6.85;;;2.42;;
75506;SDS011;64086;43.220;27.878;2023-06-05T01:24:57;4.53;;;2.47;;
75506;SDS011;64086;43.220;27.878;2023-06-05T01:32:57;7.75;;;2.58;;
75506;SDS011;64086;43.220;27.878;2023-06-05T01:35:27;6.97;;;2.80;;
75506;SDS011;64086;43.220;27.878;2023-06-05T01:37:57;5.78;;;2.20;;
75506;SDS011;64086;43.220;27.878;2023-06-05T01:40:28;5.85;;;2.50;;
75506;SDS011;64086;43.220;27.878;2023-06-05T01:42:55;4.50;;;2.35;;
75506;SDS011;64086;43.220;27.878;2023-06-05T01:45:21;4.97;;;2.22;;
75506;SDS011;64086;43.220;27.878;2023-06-05T01:47:47;4.00;;;2.00;;
75506;SDS011;64086;43.220;27.878;2023-06-05T01:50:13;6.35;;;2.20;;
75506;SDS011;64086;43.220;27.878;2023-06-05T01:52:39;5.15;;;2.38;;
75506;SDS011;64086;43.220;27.878;2023-06-05T01:55:09;8.45;;;2.70;;
75506;SDS011;64086;43.220;27.878;2023-06-05T01:57:40;4.35;;;2.33;;
75506;SDS011;64086;43.220;27.878;2023-06-05T02:00:06;7.07;;;2.80;;
75506;SDS011;64086;43.220;27.878;2023-06-05T02:02:36;5.95;;;2.63;;
75506;SDS011;64086;43.220;27.878;2023-06-05T02:05:02;5.07;;;2.40;;
75506;SDS011;64086;43.220;27.878;2023-06-05T02:07:27;5.38;;;2.50;;
75506;SDS011;64086;43.220;27.878;2023-06-05T02:09:53;6.57;;;2.45;;
75506;SDS011;64086;43.220;27.878;2023-06-05T02:12:18;6.03;;;2.80;;
75506;SDS011;64086;43.220;27.878;2023-06-05T02:14:44;4.63;;;2.65;;
75506;SDS011;64086;43.220;27.878;2023-06-05T02:17:10;5.40;;;3.15;;
75506;SDS011;64086;43.220;27.878;2023-06-05T02:19:38;5.07;;;3.13;;
75506;SDS011;64086;43.220;27.878;2023-06-05T02:22:05;7.60;;;3.50;;
75506;SDS011;64086;43.220;27.878;2023-06-05T02:24:30;7.78;;;3.80;;
75506;SDS011;64086;43.220;27.878;2023-06-05T02:26:56;9.45;;;3.25;;
75506;SDS011;64086;43.220;27.878;2023-06-05T02:29:22;9.13;;;3.33;;
75506;SDS011;64086;43.220;27.878;2023-06-05T02:31:48;6.30;;;3.83;;
75506;SDS011;64086;43.220;27.878;2023-06-05T02:34:13;9.77;;;3.58;;
75506;SDS011;64086;43.220;27.878;2023-06-05T02:36:39;5.60;;;3.03;;
75506;SDS011;64086;43.220;27.878;2023-06-05T02:39:05;7.28;;;3.63;;
75506;SDS011;64086;43.220;27.878;2023-06-05T02:41:31;6.20;;;3.25;;
75506;SDS011;64086;43.220;27.878;2023-06-05T02:43:57;6.53;;;3.10;;
75506;SDS011;64086;43.220;27.878;2023-06-05T02:46:24;7.82;;;3.50;;
75506;SDS011;64086;43.220;27.878;2023-06-05T02:48:50;6.93;;;3.40;;
75506;SDS011;64086;43.220;27.878;2023-06-05T02:51:16;6.68;;;3.22;;
75506;SDS011;64086;43.220;27.878;2023-06-05T02:53:41;8.32;;;3.10;;
75506;SDS011;64086;43.220;27.878;2023-06-05T02:56:07;7.40;;;3.45;;
75506;SDS011;64086;43.220;27.878;2023-06-05T02:58:33;5.95;;;3.10;;
75506;SDS011;64086;43.220;27.878;2023-06-05T03:00:59;6.93;;;3.08;;
75506;SDS011;64086;43.220;27.878;2023-06-05T03:03:31;8.07;;;2.80;;
75506;SDS011;64086;43.220;27.878;2023-06-05T03:05:57;5.95;;;2.42;;
75506;SDS011;64086;43.220;27.878;2023-06-05T03:08:35;6.03;;;2.33;;
75506;SDS011;64086;43.220;27.878;2023-06-05T03:11:04;5.95;;;2.50;;
75506;SDS011;64086;43.220;27.878;2023-06-05T03:13:30;6.30;;;2.50;;
75506;SDS011;64086;43.220;27.878;2023-06-05T03:15:57;5.22;;;2.25;;
75506;SDS011;64086;43.220;27.878;2023-06-05T03:18:23;5.50;;;2.22;;
75506;SDS011;64086;43.220;27.878;2023-06-05T03:20:50;6.20;;;2.13;;
75506;SDS011;64086;43.220;27.878;2023-06-05T03:23:16;3.42;;;2.05;;
75506;SDS011;64086;43.220;27.878;2023-06-05T03:25:42;5.18;;;2.03;;
75506;SDS011;64086;43.220;27.878;2023-06-05T03:28:07;6.18;;;2.40;;
75506;SDS011;64086;43.220;27.878;2023-06-05T03:30:33;5.78;;;2.38;;
75506;SDS011;64086;43.220;27.878;2023-06-05T03:32:58;7.85;;;3.50;;
75506;SDS011;64086;43.220;27.878;2023-06-05T03:35:24;9.27;;;3.40;;
75506;SDS011;64086;43.220;27.878;2023-06-05T03:37:49;7.47;;;4.25;;
75506;SDS011;64086;43.220;27.878;2023-06-05T03:40:14;9.60;;;4.88;;
75506;SDS011;64086;43.220;27.878;2023-06-05T03:42:40;10.73;;;5.07;;
75506;SDS011;64086;43.220;27.878;2023-06-05T03:45:06;10.75;;;4.68;;
75506;SDS011;64086;43.220;27.878;2023-06-05T03:47:31;12.73;;;5.15;;
75506;SDS011;64086;43.220;27.878;2023-06-05T03:49:59;9.52;;;5.43;;
75506;SDS011;64086;43.220;27.878;2023-06-05T03:52:25;10.40;;;5.50;;
75506;SDS011;64086;43.220;27.878;2023-06-05T03:54:51;13.07;;;7.10;;
75506;SDS011;64086;43.220;27.878;2023-06-05T03:57:19;14.32;;;5.70;;
75506;SDS011;64086;43.220;27.878;2023-06-05T03:59:45;10.35;;;5.75;;
75506;SDS011;64086;43.220;27.878;2023-06-05T04:02:12;10.77;;;5.88;;
75506;SDS011;64086;43.220;27.878;2023-06-05T04:04:38;12.50;;;5.90;;
75506;SDS011;64086;43.220;27.878;2023-06-05T04:07:03;10.23;;;5.90;;
75506;SDS011;64086;43.220;27.878;2023-06-05T04:09:30;15.95;;;7.03;;
75506;SDS011;64086;43.220;27.878;2023-06-05T04:11:55;20.33;;;7.32;;
75506;SDS011;64086;43.220;27.878;2023-06-05T04:14:21;19.02;;;8.43;;
75506;SDS011;64086;43.220;27.878;2023-06-05T04:16:47;15.27;;;7.97;;
75506;SDS011;64086;43.220;27.878;2023-06-05T04:19:12;14.82;;;7.45;;
75506;SDS011;64086;43.220;27.878;2023-06-05T04:21:38;12.30;;;7.75;;
75506;SDS011;64086;43.220;27.878;2023-06-05T04:24:04;14.27;;;7.53;;
75506;SDS011;64086;43.220;27.878;2023-06-05T04:26:33;14.35;;;7.03;;
75506;SDS011;64086;43.220;27.878;2023-06-05T04:28:59;10.73;;;6.38;;
75506;SDS011;64086;43.220;27.878;2023-06-05T04:31:28;16.95;;;7.50;;
75506;SDS011;64086;43.220;27.878;2023-06-05T04:33:54;12.43;;;7.35;;
75506;SDS011;64086;43.220;27.878;2023-06-05T04:36:20;13.65;;;7.47;;
75506;SDS011;64086;43.220;27.878;2023-06-05T04:38:45;12.43;;;7.38;;
75506;SDS011;64086;43.220;27.878;2023-06-05T04:41:11;12.73;;;7.90;;
75506;SDS011;64086;43.220;27.878;2023-06-05T04:43:37;9.95;;;7.55;;
75506;SDS011;64086;43.220;27.878;2023-06-05T04:46:02;10.18;;;7.47;;
75506;SDS011;64086;43.220;27.878;2023-06-05T04:48:28;16.08;;;7.38;;
75506;SDS011;64086;43.220;27.878;2023-06-05T04:50:54;10.60;;;7.40;;
75506;SDS011;64086;43.220;27.878;2023-06-05T04:53:21;13.50;;;7.47;;
75506;SDS011;64086;43.220;27.878;2023-06-05T04:55:46;10.85;;;7.57;;
75506;SDS011;64086;43.220;27.878;2023-06-05T04:58:12;15.77;;;7.35;;
75506;SDS011;64086;43.220;27.878;2023-06-05T05:00:38;15.85;;;8.52;;
75506;SDS011;64086;43.220;27.878;2023-06-05T05:03:04;14.98;;;8.05;;
75506;SDS011;64086;43.220;27.878;2023-06-05T05:05:30;13.35;;;8.15;;
75506;SDS011;64086;43.220;27.878;2023-06-05T05:07:55;12.30;;;7.82;;
75506;SDS011;64086;43.220;27.878;2023-06-05T05:10:21;8.32;;;7.43;;
75506;SDS011;64086;43.220;27.878;2023-06-05T05:12:46;14.45;;;7.50;;
75506;SDS011;64086;43.220;27.878;2023-06-05T05:15:12;11.02;;;6.97;;
75506;SDS011;64086;43.220;27.878;2023-06-05T05:17:37;13.80;;;7.00;;
75506;SDS011;64086;43.220;27.878;2023-06-05T05:20:03;12.10;;;6.93;;
75506;SDS011;64086;43.220;27.878;2023-06-05T05:22:31;10.18;;;6.03;;
75506;SDS011;64086;43.220;27.878;2023-06-05T05:24:56;9.57;;;6.45;;
75506;SDS011;64086;43.220;27.878;2023-06-05T05:27:22;13.65;;;7.60;;
75506;SDS011;64086;43.220;27.878;2023-06-05T05:29:49;11.82;;;7.35;;
75506;SDS011;64086;43.220;27.878;2023-06-05T05:32:14;13.48;;;7.35;;
75506;SDS011;64086;43.220;27.878;2023-06-05T05:34:40;13.75;;;8.68;;
75506;SDS011;64086;43.220;27.878;2023-06-05T05:37:06;13.82;;;9.05;;
75506;SDS011;64086;43.220;27.878;2023-06-05T05:39:31;10.02;;;8.40;;
75506;SDS011;64086;43.220;27.878;2023-06-05T05:41:56;15.30;;;7.60;;
75506;SDS011;64086;43.220;27.878;2023-06-05T05:44:23;9.32;;;7.28;;
75506;SDS011;64086;43.220;27.878;2023-06-05T05:46:49;11.68;;;7.18;;
75506;SDS011;64086;43.220;27.878;2023-06-05T05:49:14;11.40;;;6.43;;
75506;SDS011;64086;43.220;27.878;2023-06-05T05:51:40;8.38;;;6.18;;
75506;SDS011;64086;43.220;27.878;2023-06-05T05:54:05;19.55;;;6.82;;
75506;SDS011;64086;43.220;27.878;2023-06-05T05:56:31;12.43;;;6.20;;
75506;SDS011;64086;43.220;27.878;2023-06-05T05:58:58;8.82;;;5.90;;
75506;SDS011;64086;43.220;27.878;2023-06-05T06:01:23;7.63;;;6.05;;
75506;SDS011;64086;43.220;27.878;2023-06-05T06:03:49;10.32;;;6.07;;
75506;SDS011;64086;43.220;27.878;2023-06-05T06:06:14;8.02;;;6.00;;
75506;SDS011;64086;43.220;27.878;2023-06-05T06:08:40;10.93;;;5.95;;
75506;SDS011;64086;43.220;27.878;2023-06-05T06:11:06;15.00;;;5.68;;
75506;SDS011;64086;43.220;27.878;2023-06-05T06:13:34;11.60;;;5.82;;
75506;SDS011;64086;43.220;27.878;2023-06-05T06:16:00;8.07;;;5.07;;
75506;SDS011;64086;43.220;27.878;2023-06-05T06:18:27;9.00;;;5.30;;
75506;SDS011;64086;43.220;27.878;2023-06-05T06:20:52;8.85;;;5.20;;
75506;SDS011;64086;43.220;27.878;2023-06-05T06:23:18;7.80;;;4.43;;
75506;SDS011;64086;43.220;27.878;2023-06-05T06:25:44;10.85;;;4.30;;
75506;SDS011;64086;43.220;27.878;2023-06-05T06:28:09;7.30;;;4.20;;
75506;SDS011;64086;43.220;27.878;2023-06-05T06:30:35;5.88;;;3.90;;
75506;SDS011;64086;43.220;27.878;2023-06-05T06:33:01;5.03;;;2.50;;
75506;SDS011;64086;43.220;27.878;2023-06-05T06:35:29;4.93;;;2.30;;
75506;SDS011;64086;43.220;27.878;2023-06-05T06:37:56;5.10;;;2.42;;
75506;SDS011;64086;43.220;27.878;2023-06-05T06:40:22;5.05;;;2.60;;
75506;SDS011;64086;43.220;27.878;2023-06-05T06:42:48;3.65;;;2.33;;
75506;SDS011;64086;43.220;27.878;2023-06-05T06:45:14;4.43;;;2.53;;
75506;SDS011;64086;43.220;27.878;2023-06-05T06:47:40;4.40;;;2.58;;
75506;SDS011;64086;43.220;27.878;2023-06-05T06:50:06;5.65;;;2.42;;
75506;SDS011;64086;43.220;27.878;2023-06-05T06:52:32;4.80;;;2.25;;
75506;SDS011;64086;43.220;27.878;2023-06-05T06:54:57;4.68;;;2.30;;
75506;SDS011;64086;43.220;27.878;2023-06-05T06:57:23;4.85;;;2.20;;
75506;SDS011;64086;43.220;27.878;2023-06-05T06:59:48;5.32;;;2.55;;
75506;SDS011;64086;43.220;27.878;2023-06-05T07:02:15;3.72;;;2.38;;
75506;SDS011;64086;43.220;27.878;2023-06-05T07:04:43;2.60;;;2.03;;
75506;SDS011;64086;43.220;27.878;2023-06-05T07:07:09;3.95;;;2.13;;
75506;SDS011;64086;43.220;27.878;2023-06-05T07:09:39;3.75;;;2.20;;
75506;SDS011;64086;43.220;27.878;2023-06-05T07:12:07;4.35;;;2.20;;
75506;SDS011;64086;43.220;27.878;2023-06-05T07:14:33;3.42;;;2.30;;
75506;SDS011;64086;43.220;27.878;2023-06-05T07:16:59;4.70;;;2.63;;
75506;SDS011;64086;43.220;27.878;2023-06-05T07:19:28;5.25;;;2.58;;
75506;SDS011;64086;43.220;27.878;2023-06-05T07:21:57;4.27;;;2.53;;
75506;SDS011;64086;43.220;27.878;2023-06-05T07:24:28;2.90;;;2.10;;
75506;SDS011;64086;43.220;27.878;2023-06-05T07:26:54;3.95;;;2.50;;
75506;SDS011;64086;43.220;27.878;2023-06-05T07:29:21;4.43;;;2.25;;
75506;SDS011;64086;43.220;27.878;2023-06-05T07:31:48;5.72;;;2.63;;
75506;SDS011;64086;43.220;27.878;2023-06-05T07:34:14;3.15;;;2.15;;
75506;SDS011;64086;43.220;27.878;2023-06-05T07:36:40;5.00;;;2.50;;
75506;SDS011;64086;43.220;27.878;2023-06-05T07:39:06;8.93;;;2.38;;
75506;SDS011;64086;43.220;27.878;2023-06-05T07:41:32;3.53;;;2.35;;
75506;SDS011;64086;43.220;27.878;2023-06-05T07:43:57;3.83;;;2.45;;
75506;SDS011;64086;43.220;27.878;2023-06-05T07:46:23;4.63;;;2.33;;
75506;SDS011;64086;43.220;27.878;2023-06-05T07:48:48;5.78;;;2.47;;
75506;SDS011;64086;43.220;27.878;2023-06-05T07:51:14;4.30;;;2.50;;
75506;SDS011;64086;43.220;27.878;2023-06-05T07:53:40;6.63;;;2.70;;
75506;SDS011;64086;43.220;27.878;2023-06-05T07:56:06;5.70;;;2.65;;
75506;SDS011;64086;43.220;27.878;2023-06-05T07:58:31;5.13;;;2.63;;
75506;SDS011;64086;43.220;27.878;2023-06-05T08:00:57;4.45;;;2.42;;
75506;SDS011;64086;43.220;27.878;2023-06-05T08:03:24;2.85;;;2.28;;
75506;SDS011;64086;43.220;27.878;2023-06-05T08:05:49;6.38;;;2.60;;
75506;SDS011;64086;43.220;27.878;2023-06-05T08:08:15;5.38;;;2.40;;
75506;SDS011;64086;43.220;27.878;2023-06-05T08:10:41;3.83;;;2.00;;
75506;SDS011;64086;43.220;27.878;2023-06-05T08:13:07;3.28;;;2.10;;
75506;SDS011;64086;43.220;27.878;2023-06-05T08:15:34;4.05;;;2.13;;
75506;SDS011;64086;43.220;27.878;2023-06-05T08:17:59;3.53;;;2.10;;
75506;SDS011;64086;43.220;27.878;2023-06-05T08:20:25;4.03;;;1.90;;
75506;SDS011;64086;43.220;27.878;2023-06-05T08:22:51;6.28;;;2.22;;
75506;SDS011;64086;43.220;27.878;2023-06-05T08:25:16;6.55;;;2.13;;
75506;SDS011;64086;43.220;27.878;2023-06-05T08:27:41;5.13;;;2.10;;
75506;SDS011;64086;43.220;27.878;2023-06-05T08:30:07;7.35;;;1.95;;
75506;SDS011;64086;43.220;27.878;2023-06-05T08:32:33;4.78;;;2.00;;
75506;SDS011;64086;43.220;27.878;2023-06-05T08:34:59;3.75;;;1.70;;
75506;SDS011;64086;43.220;27.878;2023-06-05T08:37:24;3.72;;;2.00;;
75506;SDS011;64086;43.220;27.878;2023-06-05T08:39:50;4.78;;;1.98;;
75506;SDS011;64086;43.220;27.878;2023-06-05T08:42:16;4.38;;;2.00;;
75506;SDS011;64086;43.220;27.878;2023-06-05T08:44:46;3.65;;;1.90;;
75506;SDS011;64086;43.220;27.878;2023-06-05T08:47:12;6.25;;;1.90;;
75506;SDS011;64086;43.220;27.878;2023-06-05T08:49:40;5.40;;;2.03;;
75506;SDS011;64086;43.220;27.878;2023-06-05T08:52:06;4.80;;;1.90;;
75506;SDS011;64086;43.220;27.878;2023-06-05T08:54:39;4.60;;;2.00;;
75506;SDS011;64086;43.220;27.878;2023-06-05T08:59:32;3.22;;;1.70;;
75506;SDS011;64086;43.220;27.878;2023-06-05T09:01:57;5.85;;;2.00;;
75506;SDS011;64086;43.220;27.878;2023-06-05T09:04:23;3.38;;;1.70;;
75506;SDS011;64086;43.220;27.878;2023-06-05T09:06:49;4.65;;;1.88;;
75506;SDS011;64086;43.220;27.878;2023-06-05T09:09:18;4.60;;;2.00;;
75506;SDS011;64086;43.220;27.878;2023-06-05T09:11:43;2.85;;;1.90;;
75506;SDS011;64086;43.220;27.878;2023-06-05T09:14:09;3.15;;;1.88;;
75506;SDS011;64086;43.220;27.878;2023-06-05T09:16:39;3.50;;;1.98;;
75506;SDS011;64086;43.220;27.878;2023-06-05T09:19:07;5.20;;;1.88;;
75506;SDS011;64086;43.220;27.878;2023-06-05T09:21:33;4.70;;;1.83;;
75506;SDS011;64086;43.220;27.878;2023-06-05T09:27:05;3.72;;;1.80;;
75506;SDS011;64086;43.220;27.878;2023-06-05T09:29:36;6.68;;;2.42;;
75506;SDS011;64086;43.220;27.878;2023-06-05T09:32:06;3.05;;;1.90;;
75506;SDS011;64086;43.220;27.878;2023-06-05T09:34:35;5.63;;;2.13;;
75506;SDS011;64086;43.220;27.878;2023-06-05T09:37:02;4.78;;;1.80;;
75506;SDS011;64086;43.220;27.878;2023-06-05T09:39:32;3.97;;;2.20;;
75506;SDS011;64086;43.220;27.878;2023-06-05T09:41:59;5.53;;;2.50;;
75506;SDS011;64086;43.220;27.878;2023-06-05T09:44:25;4.57;;;2.17;;
75506;SDS011;64086;43.220;27.878;2023-06-05T09:49:33;5.95;;;2.78;;
75506;SDS011;64086;43.220;27.878;2023-06-05T09:52:11;5.35;;;2.00;;
75506;SDS011;64086;43.220;27.878;2023-06-05T09:54:38;3.33;;;2.03;;
75506;SDS011;64086;43.220;27.878;2023-06-05T09:57:05;5.28;;;2.17;;
75506;SDS011;64086;43.220;27.878;2023-06-05T09:59:35;4.82;;;2.17;;
75506;SDS011;64086;43.220;27.878;2023-06-05T10:02:11;5.63;;;1.70;;
75506;SDS011;64086;43.220;27.878;2023-06-05T10:05:00;4.18;;;1.80;;
75506;SDS011;64086;43.220;27.878;2023-06-05T10:07:32;6.53;;;2.10;;
75506;SDS011;64086;43.220;27.878;2023-06-05T10:10:00;3.85;;;1.50;;
75506;SDS011;64086;43.220;27.878;2023-06-05T10:12:26;5.78;;;1.80;;
75506;SDS011;64086;43.220;27.878;2023-06-05T10:14:52;4.40;;;2.00;;
75506;SDS011;64086;43.220;27.878;2023-06-05T10:17:20;5.90;;;1.85;;
75506;SDS011;64086;43.220;27.878;2023-06-05T10:19:46;3.15;;;1.80;;
75506;SDS011;64086;43.220;27.878;2023-06-05T10:22:11;4.20;;;1.90;;
75506;SDS011;64086;43.220;27.878;2023-06-05T10:24:38;4.05;;;1.85;;
75506;SDS011;64086;43.220;27.878;2023-06-05T10:40:32;6.40;;;1.75;;
75506;SDS011;64086;43.220;27.878;2023-06-05T10:45:48;3.20;;;1.10;;
75506;SDS011;64086;43.220;27.878;2023-06-05T10:48:14;5.72;;;1.30;;
75506;SDS011;64086;43.220;27.878;2023-06-05T10:50:41;2.47;;;1.30;;
75506;SDS011;64086;43.220;27.878;2023-06-05T10:53:07;2.67;;;1.30;;
75506;SDS011;64086;43.220;27.878;2023-06-05T10:55:42;2.35;;;1.30;;
75506;SDS011;64086;43.220;27.878;2023-06-05T10:58:09;4.18;;;1.40;;
75506;SDS011;64086;43.220;27.878;2023-06-05T11:00:35;4.38;;;1.52;;
75506;SDS011;64086;43.220;27.878;2023-06-05T11:03:02;3.05;;;1.25;;
75506;SDS011;64086;43.220;27.878;2023-06-05T11:05:28;2.85;;;1.20;;
75506;SDS011;64086;43.220;27.878;2023-06-05T11:13:26;5.05;;;1.50;;
75506;SDS011;64086;43.220;27.878;2023-06-05T11:18:53;3.03;;;1.42;;
75506;SDS011;64086;43.220;27.878;2023-06-05T11:21:20;4.78;;;1.40;;
75506;SDS011;64086;43.220;27.878;2023-06-05T11:24:30;5.00;;;1.40;;
75506;SDS011;64086;43.220;27.878;2023-06-05T11:26:41;4.28;;;1.30;;
75506;SDS011;64086;43.220;27.878;2023-06-05T11:29:11;2.63;;;0.93;;
75506;SDS011;64086;43.220;27.878;2023-06-05T11:31:39;2.72;;;1.17;;
75506;SDS011;64086;43.220;27.878;2023-06-05T11:34:10;2.00;;;1.10;;
75506;SDS011;64086;43.220;27.878;2023-06-05T11:36:37;4.60;;;1.27;;
75506;SDS011;64086;43.220;27.878;2023-06-05T11:39:03;3.83;;;1.23;;
75506;SDS011;64086;43.220;27.878;2023-06-05T11:41:28;3.83;;;1.30;;
75506;SDS011;64086;43.220;27.878;2023-06-05T11:43:54;6.03;;;1.30;;
75506;SDS011;64086;43.220;27.878;2023-06-05T11:46:35;4.63;;;1.50;;
75506;SDS011;64086;43.220;27.878;2023-06-05T11:49:04;4.18;;;1.50;;
75506;SDS011;64086;43.220;27.878;2023-06-05T11:51:33;5.20;;;1.70;;
75506;SDS011;64086;43.220;27.878;2023-06-05T11:53:59;3.85;;;1.50;;
75506;SDS011;64086;43.220;27.878;2023-06-05T11:56:26;3.78;;;1.30;;
75506;SDS011;64086;43.220;27.878;2023-06-05T11:58:52;4.65;;;1.40;;
75506;SDS011;64086;43.220;27.878;2023-06-05T12:01:18;3.40;;;1.55;;
75506;SDS011;64086;43.220;27.878;2023-06-05T12:03:48;3.33;;;1.40;;
75506;SDS011;64086;43.220;27.878;2023-06-05T12:06:40;4.13;;;1.48;;
75506;SDS011;64086;43.220;27.878;2023-06-05T12:09:07;2.50;;;1.60;;
75506;SDS011;64086;43.220;27.878;2023-06-05T12:11:37;3.15;;;1.50;;
75506;SDS011;64086;43.220;27.878;2023-06-05T12:14:03;3.85;;;1.50;;
75506;SDS011;64086;43.220;27.878;2023-06-05T12:16:32;4.55;;;1.30;;
75506;SDS011;64086;43.220;27.878;2023-06-05T12:18:59;2.70;;;1.50;;
75506;SDS011;64086;43.220;27.878;2023-06-05T12:21:26;4.43;;;1.95;;
75506;SDS011;64086;43.220;27.878;2023-06-05T12:24:00;2.80;;;1.40;;
75506;SDS011;64086;43.220;27.878;2023-06-05T12:26:26;3.10;;;1.20;;
75506;SDS011;64086;43.220;27.878;2023-06-05T12:29:05;4.00;;;1.50;;
75506;SDS011;64086;43.220;27.878;2023-06-05T12:31:34;5.70;;;1.40;;
75506;SDS011;64086;43.220;27.878;2023-06-05T12:34:01;4.07;;;1.55;;
75506;SDS011;64086;43.220;27.878;2023-06-05T12:36:27;4.40;;;1.50;;
75506;SDS011;64086;43.220;27.878;2023-06-05T12:38:54;3.10;;;1.20;;
75506;SDS011;64086;43.220;27.878;2023-06-05T12:41:20;3.35;;;1.45;;
75506;SDS011;64086;43.220;27.878;2023-06-05T12:43:45;3.40;;;1.60;;
75506;SDS011;64086;43.220;27.878;2023-06-05T12:46:11;5.68;;;1.60;;
75506;SDS011;64086;43.220;27.878;2023-06-05T12:48:38;3.58;;;1.60;;
75506;SDS011;64086;43.220;27.878;2023-06-05T12:51:05;3.70;;;1.52;;
75506;SDS011;64086;43.220;27.878;2023-06-05T12:53:30;3.22;;;1.58;;
75506;SDS011;64086;43.220;27.878;2023-06-05T12:55:56;4.03;;;1.88;;
75506;SDS011;64086;43.220;27.878;2023-06-05T12:58:21;2.42;;;1.33;;
75506;SDS011;64086;43.220;27.878;2023-06-05T13:00:47;4.15;;;1.40;;
75506;SDS011;64086;43.220;27.878;2023-06-05T13:03:13;4.55;;;1.40;;
75506;SDS011;64086;43.220;27.878;2023-06-05T13:05:39;3.33;;;1.30;;
75506;SDS011;64086;43.220;27.878;2023-06-05T13:08:04;3.13;;;1.60;;
75506;SDS011;64086;43.220;27.878;2023-06-05T13:10:31;3.83;;;1.40;;
75506;SDS011;64086;43.220;27.878;2023-06-05T13:12:56;4.20;;;1.33;;
75506;SDS011;64086;43.220;27.878;2023-06-05T13:15:22;4.65;;;1.50;;
75506;SDS011;64086;43.220;27.878;2023-06-05T13:17:47;3.35;;;1.48;;
75506;SDS011;64086;43.220;27.878;2023-06-05T13:20:14;5.78;;;1.40;;
75506;SDS011;64086;43.220;27.878;2023-06-05T13:22:40;2.38;;;1.38;;
75506;SDS011;64086;43.220;27.878;2023-06-05T13:25:06;2.63;;;1.20;;
75506;SDS011;64086;43.220;27.878;2023-06-05T13:27:33;3.85;;;1.58;;
75506;SDS011;64086;43.220;27.878;2023-06-05T13:29:58;3.85;;;1.52;;
75506;SDS011;64086;43.220;27.878;2023-06-05T13:32:24;8.10;;;1.50;;
75506;SDS011;64086;43.220;27.878;2023-06-05T13:34:50;3.72;;;1.45;;
75506;SDS011;64086;43.220;27.878;2023-06-05T13:37:15;3.03;;;1.25;;
75506;SDS011;64086;43.220;27.878;2023-06-05T13:39:41;4.57;;;1.40;;
75506;SDS011;64086;43.220;27.878;2023-06-05T13:42:06;3.33;;;1.50;;
75506;SDS011;64086;43.220;27.878;2023-06-05T13:44:32;3.47;;;1.50;;
75506;SDS011;64086;43.220;27.878;2023-06-05T13:46:59;3.47;;;1.30;;
75506;SDS011;64086;43.220;27.878;2023-06-05T13:49:26;3.20;;;1.60;;
75506;SDS011;64086;43.220;27.878;2023-06-05T13:51:52;3.78;;;1.77;;
75506;SDS011;64086;43.220;27.878;2023-06-05T13:54:18;3.72;;;1.42;;
75506;SDS011;64086;43.220;27.878;2023-06-05T13:56:43;4.88;;;1.50;;
75506;SDS011;64086;43.220;27.878;2023-06-05T13:59:08;3.90;;;1.65;;
75506;SDS011;64086;43.220;27.878;2023-06-05T14:01:34;4.82;;;1.60;;
75506;SDS011;64086;43.220;27.878;2023-06-05T14:03:59;5.13;;;1.42;;
75506;SDS011;64086;43.220;27.878;2023-06-05T14:06:25;3.45;;;1.10;;
75506;SDS011;64086;43.220;27.878;2023-06-05T14:08:50;3.90;;;1.30;;
75506;SDS011;64086;43.220;27.878;2023-06-05T14:11:16;4.28;;;1.70;;
75506;SDS011;64086;43.220;27.878;2023-06-05T14:13:41;3.63;;;1.52;;
75506;SDS011;64086;43.220;27.878;2023-06-05T14:16:08;4.63;;;1.40;;
75506;SDS011;64086;43.220;27.878;2023-06-05T14:18:35;3.00;;;1.50;;
75506;SDS011;64086;43.220;27.878;2023-06-05T14:21:01;2.72;;;1.30;;
75506;SDS011;64086;43.220;27.878;2023-06-05T14:23:26;2.90;;;1.35;;
75506;SDS011;64086;43.220;27.878;2023-06-05T14:25:52;4.72;;;1.20;;
75506;SDS011;64086;43.220;27.878;2023-06-05T14:28:17;3.00;;;1.40;;
75506;SDS011;64086;43.220;27.878;2023-06-05T14:30:44;3.47;;;1.42;;
75506;SDS011;64086;43.220;27.878;2023-06-05T14:33:10;4.40;;;1.50;;
75506;SDS011;64086;43.220;27.878;2023-06-05T14:35:36;3.65;;;1.30;;
75506;SDS011;64086;43.220;27.878;2023-06-05T14:38:01;4.32;;;1.45;;
75506;SDS011;64086;43.220;27.878;2023-06-05T14:40:27;2.83;;;1.35;;
75506;SDS011;64086;43.220;27.878;2023-06-05T14:42:52;3.03;;;1.50;;
75506;SDS011;64086;43.220;27.878;2023-06-05T14:45:18;2.85;;;1.40;;
75506;SDS011;64086;43.220;27.878;2023-06-05T14:47:43;4.60;;;1.30;;
75506;SDS011;64086;43.220;27.878;2023-06-05T14:50:10;4.97;;;1.70;;
75506;SDS011;64086;43.220;27.878;2023-06-05T14:52:35;3.10;;;1.58;;
75506;SDS011;64086;43.220;27.878;2023-06-05T14:55:01;5.75;;;1.45;;
75506;SDS011;64086;43.220;27.878;2023-06-05T14:57:27;3.42;;;1.50;;
75506;SDS011;64086;43.220;27.878;2023-06-05T14:59:53;3.78;;;1.50;;
75506;SDS011;64086;43.220;27.878;2023-06-05T15:02:18;2.88;;;1.35;;
75506;SDS011;64086;43.220;27.878;2023-06-05T15:04:47;3.40;;;1.40;;
75506;SDS011;64086;43.220;27.878;2023-06-05T15:07:20;2.72;;;1.08;;
75506;SDS011;64086;43.220;27.878;2023-06-05T15:09:46;2.97;;;1.27;;
75506;SDS011;64086;43.220;27.878;2023-06-05T15:12:12;3.67;;;1.27;;